Time;durP1;ratioP1;P1;durP2;ratioP2;P2;SDS_P1;SDS_P2;PMS_P1;PMS_P2;Temp;Humidity;BMP_temperature;BMP_pressure;BME280_temperature;BME280_humidity;BME280_pressure;Samples;Min_cycle;Max_cycle;Signal;HPM_P1;HPM_P2
2022/09/02 00:02:11;;;;;;;;;;;10.10;99.90;;;;;;5072935;28;19996;-75
2022/09/02 00:04:37;;;;;;;;;;;10.10;99.90;;;;;;5072655;28;19908;-75
2022/09/02 00:07:02;;;;;;;;;;;10.00;99.90;;;;;;5072875;28;19916;-75
2022/09/02 00:09:28;;;;;;;;;;;9.90;99.90;;;;;;5071502;28;19912;-76
2022/09/02 00:11:54;;;;;;;;;;;9.90;99.90;;;;;;5072784;28;19912;-75
2022/09/02 00:14:22;;;;;;;;;;;10.00;99.90;;;;;;5072509;28;19915;-75
2022/09/02 00:16:51;;;;;;;;;;;9.90;99.90;;;;;;5072592;28;19919;-76
2022/09/02 00:19:18;;;;;;;;;;;9.90;99.90;;;;;;5051723;28;19909;-75
2022/09/02 00:21:44;;;;;;;;;;;9.90;99.90;;;;;;5062376;28;20318;-75
2022/09/02 00:24:09;;;;;;;;;;;9.80;99.90;;;;;;5072361;28;20009;-75
2022/09/02 00:26:35;;;;;;;;;;;9.80;99.90;;;;;;5072469;28;20293;-75
2022/09/02 00:29:00;;;;;;;;;;;9.70;99.90;;;;;;5072595;28;19948;-75
2022/09/02 00:31:27;;;;;;;;;;;9.60;99.90;;;;;;5072731;28;19936;-76
2022/09/02 00:33:53;;;;;;;;;;;9.60;99.90;;;;;;5072270;28;19913;-76
2022/09/02 00:36:19;;;;;;;;;;;9.60;99.90;;;;;;5074512;28;20285;-76
2022/09/02 00:38:45;;;;;;;;;;;9.60;99.90;;;;;;5072209;28;19962;-76
2022/09/02 00:41:11;;;;;;;;;;;9.50;99.90;;;;;;5072366;28;20381;-76
2022/09/02 00:43:39;;;;;;;;;;;9.50;99.90;;;;;;5071954;28;19915;-76
2022/09/02 00:46:05;;;;;;;;;;;9.60;99.90;;;;;;5070833;28;19944;-76
2022/09/02 00:48:31;;;;;;;;;;;9.50;99.90;;;;;;5070921;28;19912;-75
2022/09/02 00:50:57;;;;;;;;;;;9.50;99.90;;;;;;5071670;28;19908;-75
2022/09/02 00:53:22;;;;;;;;;;;9.40;99.90;;;;;;5071632;28;19930;-76
2022/09/02 00:55:49;;;;;;;;;;;9.40;99.90;;;;;;5071925;28;20380;-76
2022/09/02 00:58:19;;;;;;;;;;;9.40;99.90;;;;;;5072013;28;19915;-76
2022/09/02 01:00:46;;;;;;;;;;;9.40;99.90;;;;;;5071822;28;19915;-76
2022/09/02 01:03:14;;;;;;;;;;;9.30;99.90;;;;;;5071487;28;20011;-76
2022/09/02 01:05:44;;;;;;;;;;;9.30;99.90;;;;;;5072222;28;20441;-76
2022/09/02 01:08:31;;;;;;;;;;;9.30;99.90;;;;;;5073501;28;19917;-77
2022/09/02 01:10:57;;;;;;;;;;;9.30;99.90;;;;;;5065287;28;19999;-76
2022/09/02 01:13:24;;;;;;;;;;;9.20;99.90;;;;;;5065699;28;20016;-76
2022/09/02 01:15:53;;;;;;;;;;;9.20;99.90;;;;;;5071701;28;19909;-76
2022/09/02 01:18:23;;;;;;;;;;;9.20;99.90;;;;;;5071854;28;20550;-76
2022/09/02 01:20:49;;;;;;;;;;;9.20;99.90;;;;;;5071676;28;19908;-76
2022/09/02 01:23:16;;;;;;;;;;;9.20;99.90;;;;;;5071642;28;19962;-76
2022/09/02 01:25:42;;;;;;;;;;;9.20;99.90;;;;;;5071590;28;19908;-76
2022/09/02 01:28:09;;;;;;;;;;;9.20;99.90;;;;;;5071651;28;19916;-77
2022/09/02 01:30:36;;;;;;;;;;;9.20;99.90;;;;;;5071550;28;19995;-76
2022/09/02 01:33:01;;;;;;;;;;;9.00;99.90;;;;;;5071506;28;19909;-76
2022/09/02 01:35:27;;;;;;;;;;;9.00;99.90;;;;;;5069767;28;19923;-76
2022/09/02 01:37:56;;;;;;;;;;;9.00;99.90;;;;;;5071177;28;19918;-76
2022/09/02 01:40:22;;;;;;;;;;;9.00;99.90;;;;;;5065108;28;20005;-76
2022/09/02 01:42:52;;;;;;;;;;;9.10;99.90;;;;;;5071359;28;19954;-77
2022/09/02 01:45:17;;;;;;;;;;;9.20;99.90;;;;;;5071176;28;19912;-76
2022/09/02 01:47:43;;;;;;;;;;;9.00;99.90;;;;;;5071393;28;20268;-76
2022/09/02 01:50:08;;;;;;;;;;;8.90;99.90;;;;;;5071391;28;19908;-77
2022/09/02 01:52:34;;;;;;;;;;;8.90;99.90;;;;;;5071031;28;19908;-77
2022/09/02 01:55:00;;;;;;;;;;;8.80;99.90;;;;;;5071115;28;20266;-76
2022/09/02 01:57:26;;;;;;;;;;;8.90;99.90;;;;;;5071252;28;20022;-76
2022/09/02 01:59:51;;;;;;;;;;;8.90;99.90;;;;;;5071408;28;19909;-76
2022/09/02 02:02:18;;;;;;;;;;;8.80;99.90;;;;;;5071106;28;19913;-76
2022/09/02 02:04:45;;;;;;;;;;;8.80;99.90;;;;;;5071082;28;19908;-76
2022/09/02 02:07:11;;;;;;;;;;;8.80;99.90;;;;;;5074861;28;19908;-76
2022/09/02 02:09:37;;;;;;;;;;;8.80;99.90;;;;;;5073273;28;20420;-76
2022/09/02 02:12:03;;;;;;;;;;;8.80;99.90;;;;;;5075116;28;19908;-76
2022/09/02 02:14:29;;;;;;;;;;;8.70;99.90;;;;;;5073493;28;19909;-77
2022/09/02 02:16:54;;;;;;;;;;;8.60;99.90;;;;;;5075136;28;19915;-76
2022/09/02 02:19:20;;;;;;;;;;;8.70;99.90;;;;;;5075143;28;19908;-76
2022/09/02 02:21:45;;;;;;;;;;;8.70;99.90;;;;;;5074903;28;19909;-77
2022/09/02 02:24:11;;;;;;;;;;;8.70;99.90;;;;;;5074582;28;20281;-76
2022/09/02 02:26:36;;;;;;;;;;;8.60;99.90;;;;;;5074945;28;19920;-76
2022/09/02 02:29:02;;;;;;;;;;;8.60;99.90;;;;;;5074801;28;19913;-76
2022/09/02 02:31:27;;;;;;;;;;;8.60;99.90;;;;;;5074734;28;20010;-76
2022/09/02 02:33:53;;;;;;;;;;;8.60;99.90;;;;;;5074483;28;19913;-76
2022/09/02 02:36:18;;;;;;;;;;;8.50;99.90;;;;;;5078986;28;19947;-76
2022/09/02 02:38:45;;;;;;;;;;;8.40;99.90;;;;;;5074333;28;19909;-76
2022/09/02 02:41:11;;;;;;;;;;;8.40;99.90;;;;;;5074516;28;19908;-76
2022/09/02 02:43:37;;;;;;;;;;;8.30;99.90;;;;;;5074382;28;19912;-76
2022/09/02 02:46:03;;;;;;;;;;;8.30;99.90;;;;;;5074672;28;20357;-76
2022/09/02 02:48:29;;;;;;;;;;;8.30;99.90;;;;;;5074655;28;19920;-76
2022/09/02 02:50:55;;;;;;;;;;;8.30;99.90;;;;;;5074250;28;19961;-76
2022/09/02 02:53:20;;;;;;;;;;;8.40;99.90;;;;;;5074199;28;19912;-76
2022/09/02 02:55:46;;;;;;;;;;;8.30;99.90;;;;;;5074459;28;20374;-76
2022/09/02 02:58:11;;;;;;;;;;;8.30;99.90;;;;;;5074896;28;19909;-76
2022/09/02 03:00:37;;;;;;;;;;;8.40;99.90;;;;;;5085119;28;19920;-75
2022/09/02 03:03:04;;;;;;;;;;;8.30;99.90;;;;;;5084940;28;19909;-75
2022/09/02 03:05:30;;;;;;;;;;;8.30;99.90;;;;;;5083237;28;19909;-76
2022/09/02 03:07:56;;;;;;;;;;;8.20;99.90;;;;;;5086149;28;19943;-75
2022/09/02 03:10:22;;;;;;;;;;;8.20;99.90;;;;;;5084815;28;19927;-75
2022/09/02 03:12:49;;;;;;;;;;;8.20;99.90;;;;;;5095284;28;19913;-76
2022/09/02 03:15:16;;;;;;;;;;;8.10;99.90;;;;;;5073766;28;20354;-76
2022/09/02 03:17:47;;;;;;;;;;;8.10;99.90;;;;;;5074145;28;20266;-76
2022/09/02 03:20:17;;;;;;;;;;;8.10;99.90;;;;;;5066449;28;19908;-76
2022/09/02 03:22:43;;;;;;;;;;;8.00;99.90;;;;;;5073845;28;19909;-76
2022/09/02 03:25:10;;;;;;;;;;;8.00;99.90;;;;;;5073714;28;19908;-76
2022/09/02 03:27:36;;;;;;;;;;;8.10;99.90;;;;;;5072442;28;19912;-75
2022/09/02 03:30:02;;;;;;;;;;;8.00;99.90;;;;;;5073726;28;19970;-76
2022/09/02 03:32:27;;;;;;;;;;;7.90;99.90;;;;;;5072104;28;20323;-76
2022/09/02 03:34:53;;;;;;;;;;;7.90;99.90;;;;;;5072279;28;19935;-76
2022/09/02 03:37:19;;;;;;;;;;;7.90;99.90;;;;;;5073526;28;19909;-76
2022/09/02 03:39:44;;;;;;;;;;;8.00;99.90;;;;;;5073607;28;20110;-76
2022/09/02 03:42:10;;;;;;;;;;;8.00;99.90;;;;;;5073565;28;20270;-76
2022/09/02 03:44:35;;;;;;;;;;;8.00;99.90;;;;;;5071854;28;19915;-76
2022/09/02 03:47:01;;;;;;;;;;;7.90;99.90;;;;;;5073219;28;20357;-76
2022/09/02 03:49:27;;;;;;;;;;;8.00;99.90;;;;;;5073012;28;19916;-76
2022/09/02 03:51:52;;;;;;;;;;;7.90;99.90;;;;;;5073089;28;19970;-76
2022/09/02 03:54:18;;;;;;;;;;;7.80;99.90;;;;;;5073282;28;19909;-76
2022/09/02 03:56:43;;;;;;;;;;;7.80;99.90;;;;;;5073294;28;19909;-76
2022/09/02 03:59:09;;;;;;;;;;;7.80;99.90;;;;;;5073171;28;19916;-76
2022/09/02 04:01:35;;;;;;;;;;;7.80;99.90;;;;;;5071730;28;19908;-76
2022/09/02 04:04:01;;;;;;;;;;;7.80;99.90;;;;;;5072731;28;19951;-76
2022/09/02 04:06:27;;;;;;;;;;;7.70;99.90;;;;;;5072783;28;19974;-76
2022/09/02 04:08:52;;;;;;;;;;;7.80;99.90;;;;;;5073080;28;20016;-75
2022/09/02 04:11:19;;;;;;;;;;;7.80;99.90;;;;;;5072834;28;19920;-76
2022/09/02 04:13:45;;;;;;;;;;;7.70;99.90;;;;;;5072899;28;19913;-76
2022/09/02 04:16:12;;;;;;;;;;;7.70;99.90;;;;;;5072977;28;19939;-76
2022/09/02 04:18:38;;;;;;;;;;;7.60;99.90;;;;;;5072956;28;19959;-76
2022/09/02 04:21:04;;;;;;;;;;;7.70;99.90;;;;;;5072788;28;19951;-76
2022/09/02 04:23:30;;;;;;;;;;;7.60;99.90;;;;;;5072588;28;20316;-76
2022/09/02 04:25:56;;;;;;;;;;;7.60;99.90;;;;;;5072488;28;19954;-76
2022/09/02 04:28:21;;;;;;;;;;;7.50;99.90;;;;;;5072734;28;19957;-76
2022/09/02 04:30:47;;;;;;;;;;;7.50;99.90;;;;;;5072109;28;19908;-76
2022/09/02 04:33:12;;;;;;;;;;;7.50;99.90;;;;;;5068264;28;19912;-76
2022/09/02 04:35:39;;;;;;;;;;;7.60;99.90;;;;;;5069811;28;19915;-76
2022/09/02 04:38:05;;;;;;;;;;;7.60;99.90;;;;;;5072337;28;20385;-75
2022/09/02 04:40:30;;;;;;;;;;;7.50;99.90;;;;;;5072380;28;20009;-76
2022/09/02 04:42:56;;;;;;;;;;;7.50;99.90;;;;;;5072238;28;20005;-76
2022/09/02 04:45:21;;;;;;;;;;;7.50;99.90;;;;;;5072288;28;19909;-76
2022/09/02 04:47:47;;;;;;;;;;;7.60;99.90;;;;;;5072096;28;19916;-76
2022/09/02 04:50:12;;;;;;;;;;;7.60;99.90;;;;;;5070084;28;19919;-76
2022/09/02 04:52:38;;;;;;;;;;;7.60;99.90;;;;;;5072062;28;20378;-76
2022/09/02 04:55:05;;;;;;;;;;;7.70;99.90;;;;;;5071672;28;19995;-76
2022/09/02 04:57:31;;;;;;;;;;;7.60;99.90;;;;;;5072243;28;19908;-75
2022/09/02 04:59:57;;;;;;;;;;;7.60;99.90;;;;;;5072026;28;19988;-76
2022/09/02 05:02:22;;;;;;;;;;;7.60;99.90;;;;;;5070327;28;19958;-75
2022/09/02 05:04:48;;;;;;;;;;;7.50;99.90;;;;;;5067577;28;19948;-76
2022/09/02 05:07:14;;;;;;;;;;;7.50;99.90;;;;;;5071533;28;19962;-75
2022/09/02 05:09:40;;;;;;;;;;;7.50;99.90;;;;;;5071497;28;19917;-75
2022/09/02 05:12:06;;;;;;;;;;;7.60;99.90;;;;;;5071666;28;20289;-75
2022/09/02 05:14:32;;;;;;;;;;;7.70;99.90;;;;;;5071363;28;19916;-75
2022/09/02 05:16:59;;;;;;;;;;;7.60;99.90;;;;;;5071486;28;20367;-75
2022/09/02 05:19:24;;;;;;;;;;;7.70;99.90;;;;;;5071541;28;19912;-75
2022/09/02 05:21:54;;;;;;;;;;;7.80;99.90;;;;;;5071527;28;19977;-75
2022/09/02 05:24:20;;;;;;;;;;;7.80;99.90;;;;;;5072040;28;19938;-74
2022/09/02 05:26:45;;;;;;;;;;;7.90;99.90;;;;;;5071794;28;19909;-74
2022/09/02 05:29:12;;;;;;;;;;;7.80;99.90;;;;;;5062375;28;20027;-76
2022/09/02 05:31:39;;;;;;;;;;;8.00;99.90;;;;;;5071309;28;19966;-75
2022/09/02 05:34:04;;;;;;;;;;;8.10;99.90;;;;;;5063117;28;19909;-75
2022/09/02 05:36:31;;;;;;;;;;;8.10;99.90;;;;;;5070734;28;19915;-75
2022/09/02 05:38:57;;;;;;;;;;;8.00;99.90;;;;;;5070861;28;19916;-75
2022/09/02 05:41:24;;;;;;;;;;;8.20;99.90;;;;;;5069695;28;19908;-75
2022/09/02 05:43:50;;;;;;;;;;;8.30;99.90;;;;;;5070380;28;20286;-75
2022/09/02 05:46:18;;;;;;;;;;;8.40;99.90;;;;;;5071214;28;19915;-74
2022/09/02 05:51:29;;;;;;;;;;;8.50;99.90;;;;;;5071405;28;19958;-74
2022/09/02 05:53:55;;;;;;;;;;;8.60;99.90;;;;;;5071182;28;20324;-75
2022/09/02 05:56:21;;;;;;;;;;;8.60;99.90;;;;;;5069967;28;19909;-75
2022/09/02 05:58:46;;;;;;;;;;;8.70;99.90;;;;;;5071096;28;19919;-75
2022/09/02 06:01:13;;;;;;;;;;;8.90;99.90;;;;;;5070936;28;19955;-74
2022/09/02 06:03:38;;;;;;;;;;;9.00;99.90;;;;;;5069354;28;19961;-75
2022/09/02 06:06:05;;;;;;;;;;;9.00;99.90;;;;;;5070528;28;20358;-74
2022/09/02 06:08:32;;;;;;;;;;;9.20;99.90;;;;;;5070695;28;19913;-75
2022/09/02 06:11:00;;;;;;;;;;;9.30;99.90;;;;;;5066457;28;19927;-75
2022/09/02 06:13:27;;;;;;;;;;;9.40;99.90;;;;;;5064199;28;19916;-75
2022/09/02 06:15:53;;;;;;;;;;;9.50;99.90;;;;;;5070378;28;19912;-75
2022/09/02 06:18:18;;;;;;;;;;;9.70;99.90;;;;;;5070447;28;19999;-74
2022/09/02 06:20:46;;;;;;;;;;;9.70;99.90;;;;;;5070475;28;19915;-75
2022/09/02 06:23:12;;;;;;;;;;;9.80;99.90;;;;;;5070250;28;20484;-75
2022/09/02 06:25:37;;;;;;;;;;;9.90;99.90;;;;;;5070054;28;20003;-75
2022/09/02 06:28:03;;;;;;;;;;;10.10;99.90;;;;;;5069625;28;19919;-74
2022/09/02 06:30:29;;;;;;;;;;;10.20;99.90;;;;;;5068600;28;19908;-74
2022/09/02 06:32:54;;;;;;;;;;;10.30;99.90;;;;;;5070040;28;19908;-75
2022/09/02 06:35:20;;;;;;;;;;;10.40;99.90;;;;;;5066555;28;19982;-75
2022/09/02 06:37:46;;;;;;;;;;;10.50;99.90;;;;;;5065769;28;20350;-75
2022/09/02 06:40:13;;;;;;;;;;;10.60;99.90;;;;;;5069731;28;19995;-75
2022/09/02 06:42:39;;;;;;;;;;;10.70;99.90;;;;;;5070458;28;20299;-75
2022/09/02 06:45:05;;;;;;;;;;;10.90;99.90;;;;;;5070325;28;20241;-75
2022/09/02 06:47:31;;;;;;;;;;;11.00;99.90;;;;;;5070366;28;19947;-74
2022/09/02 06:49:56;;;;;;;;;;;11.30;99.90;;;;;;5070190;28;20334;-74
2022/09/02 06:52:22;;;;;;;;;;;11.40;99.90;;;;;;5068695;28;19944;-74
2022/09/02 06:54:49;;;;;;;;;;;11.60;99.90;;;;;;5074193;28;20281;-75
2022/09/02 06:57:15;;;;;;;;;;;11.70;99.90;;;;;;5073822;28;20328;-75
2022/09/02 06:59:40;;;;;;;;;;;12.20;99.90;;;;;;5073955;28;19998;-75
2022/09/02 07:02:06;;;;;;;;;;;12.20;99.90;;;;;;5073592;28;19916;-74
2022/09/02 07:07:15;;;;;;;;;;;12.60;99.90;;;;;;5070029;28;20324;-75
2022/09/02 07:09:41;;;;;;;;;;;12.70;99.90;;;;;;5070307;28;19917;-75
2022/09/02 07:12:07;;;;;;;;;;;12.80;99.90;;;;;;5075416;28;20310;-75
2022/09/02 07:14:40;;;;;;;;;;;12.90;99.90;;;;;;5070277;28;20251;-75
2022/09/02 07:17:06;;;;;;;;;;;13.10;99.90;;;;;;5073724;28;19912;-75
2022/09/02 07:19:32;;;;;;;;;;;13.30;99.90;;;;;;5073409;28;19939;-75
2022/09/02 07:21:57;;;;;;;;;;;13.40;99.90;;;;;;5073022;28;20534;-75
2022/09/02 07:24:23;;;;;;;;;;;13.70;99.90;;;;;;5073013;28;19909;-75
2022/09/02 07:26:49;;;;;;;;;;;13.80;99.90;;;;;;5071105;28;19909;-74
2022/09/02 07:29:14;;;;;;;;;;;14.60;99.90;;;;;;5073173;28;19919;-75
2022/09/02 07:31:41;;;;;;;;;;;16.70;99.90;;;;;;5072930;28;19908;-75
2022/09/02 07:34:08;;;;;;;;;;;18.40;99.90;;;;;;5070952;28;19909;-75
2022/09/02 07:36:35;;;;;;;;;;;19.30;99.90;;;;;;5072822;28;19962;-76
2022/09/02 07:39:01;;;;;;;;;;;19.70;99.90;;;;;;5073151;28;19908;-75
2022/09/02 07:41:27;;;;;;;;;;;19.60;99.30;;;;;;5072838;28;19912;-76
2022/09/02 07:43:53;;;;;;;;;;;20.40;98.70;;;;;;5072944;28;19931;-75
2022/09/02 07:46:18;;;;;;;;;;;20.90;97.30;;;;;;5073098;28;19908;-76
2022/09/02 07:48:44;;;;;;;;;;;21.20;94.20;;;;;;5072825;28;20352;-76
2022/09/02 07:51:10;;;;;;;;;;;21.10;95.00;;;;;;5067052;28;20464;-76
2022/09/02 07:53:36;;;;;;;;;;;21.30;95.50;;;;;;5070786;28;19915;-76
2022/09/02 07:56:02;;;;;;;;;;;22.10;92.50;;;;;;5072872;28;19912;-76
2022/09/02 07:58:27;;;;;;;;;;;22.70;91.80;;;;;;5072492;28;19920;-76
2022/09/02 08:00:55;;;;;;;;;;;22.80;91.00;;;;;;5073288;28;20001;-76
2022/09/02 08:03:21;;;;;;;;;;;22.50;87.70;;;;;;5067838;28;19913;-76
2022/09/02 08:05:47;;;;;;;;;;;22.50;90.20;;;;;;5075213;28;19919;-76
2022/09/02 08:08:14;;;;;;;;;;;22.90;87.70;;;;;;5072580;28;20298;-76
2022/09/02 08:10:39;;;;;;;;;;;22.90;86.80;;;;;;5072916;28;19917;-76
2022/09/02 08:13:05;;;;;;;;;;;23.30;84.10;;;;;;5072803;28;19908;-76
2022/09/02 08:15:32;;;;;;;;;;;23.50;83.00;;;;;;5072509;28;19908;-77
2022/09/02 08:17:57;;;;;;;;;;;23.70;81.70;;;;;;5069028;28;19912;-77
2022/09/02 08:20:25;;;;;;;;;;;23.60;81.40;;;;;;5071652;28;20218;-77
2022/09/02 08:22:50;;;;;;;;;;;23.90;80.00;;;;;;5072236;28;19909;-77
2022/09/02 08:25:17;;;;;;;;;;;23.90;81.10;;;;;;5070936;28;19916;-77
2022/09/02 08:27:43;;;;;;;;;;;23.40;81.50;;;;;;5072599;28;20312;-76
2022/09/02 08:30:09;;;;;;;;;;;23.30;79.90;;;;;;5071721;28;19913;-76
2022/09/02 08:32:34;;;;;;;;;;;23.70;81.60;;;;;;5071476;28;20415;-76
2022/09/02 08:35:01;;;;;;;;;;;24.40;79.10;;;;;;5074130;28;19916;-76
2022/09/02 08:37:28;;;;;;;;;;;24.70;75.40;;;;;;5071731;28;19969;-76
2022/09/02 08:39:53;;;;;;;;;;;24.50;77.00;;;;;;5071807;28;19944;-76
2022/09/02 08:42:26;;;;;;;;;;;25.20;75.50;;;;;;5070227;28;20369;-76
2022/09/02 08:44:54;;;;;;;;;;;25.00;73.10;;;;;;5071560;28;20348;-76
2022/09/02 08:47:22;;;;;;;;;;;25.50;74.00;;;;;;5071545;28;19969;-76
2022/09/02 08:49:50;;;;;;;;;;;25.70;73.10;;;;;;5071426;28;20003;-76
2022/09/02 08:52:25;;;;;;;;;;;24.70;73.80;;;;;;5069648;28;19912;-76
2022/09/02 08:54:57;;;;;;;;;;;26.10;72.50;;;;;;5070554;28;19912;-76
2022/09/02 08:57:26;;;;;;;;;;;25.20;69.80;;;;;;5070283;28;20007;-76
2022/09/02 08:59:57;;;;;;;;;;;25.20;71.50;;;;;;5071163;28;19908;-76
2022/09/02 09:02:31;;;;;;;;;;;25.50;71.30;;;;;;5071273;28;19909;-76
2022/09/02 09:05:15;;;;;;;;;;;24.70;70.30;;;;;;5071129;28;20365;-76
2022/09/02 09:07:59;;;;;;;;;;;26.10;69.60;;;;;;5073204;28;20315;-76
2022/09/02 09:10:31;;;;;;;;;;;27.00;66.00;;;;;;5069662;28;19973;-76
2022/09/02 09:13:03;;;;;;;;;;;26.10;68.40;;;;;;5070869;28;19908;-76
2022/09/02 09:15:35;;;;;;;;;;;26.30;68.80;;;;;;5065523;28;20373;-76
2022/09/02 09:18:02;;;;;;;;;;;27.30;64.30;;;;;;5070376;28;19914;-76
2022/09/02 09:20:32;;;;;;;;;;;27.10;62.70;;;;;;5069681;28;20427;-76
2022/09/02 09:22:59;;;;;;;;;;;26.60;66.80;;;;;;5070920;28;19909;-76
2022/09/02 09:25:28;;;;;;;;;;;27.50;61.40;;;;;;5070795;28;19908;-76
2022/09/02 09:27:55;;;;;;;;;;;27.60;67.40;;;;;;5070798;28;20378;-76
2022/09/02 09:30:21;;;;;;;;;;;26.70;61.20;;;;;;5070858;28;20350;-76
2022/09/02 09:32:48;;;;;;;;;;;26.40;64.50;;;;;;5069697;28;19995;-76
2022/09/02 09:35:18;;;;;;;;;;;27.10;62.50;;;;;;5064908;28;19909;-76
2022/09/02 09:37:46;;;;;;;;;;;27.60;59.70;;;;;;5070737;28;20475;-76
2022/09/02 09:40:24;;;;;;;;;;;28.10;58.30;;;;;;5070835;28;20000;-76
2022/09/02 09:42:54;;;;;;;;;;;28.20;59.00;;;;;;5070565;28;19908;-76
2022/09/02 09:45:25;;;;;;;;;;;28.20;58.00;;;;;;5069537;28;19919;-76
2022/09/02 09:48:09;;;;;;;;;;;28.10;61.60;;;;;;5070756;28;19952;-76
2022/09/02 09:50:35;;;;;;;;;;;27.00;57.80;;;;;;5070224;28;19909;-76
2022/09/02 09:53:19;;;;;;;;;;;28.40;57.40;;;;;;5061661;28;19909;-76
2022/09/02 09:55:49;;;;;;;;;;;29.10;57.20;;;;;;5066523;28;19909;-76
2022/09/02 09:58:15;;;;;;;;;;;29.70;52.90;;;;;;5065640;28;19912;-76
2022/09/02 10:00:41;;;;;;;;;;;28.90;54.50;;;;;;5069408;28;19931;-76
2022/09/02 10:03:07;;;;;;;;;;;28.50;54.80;;;;;;5073875;28;20434;-76
2022/09/02 10:05:34;;;;;;;;;;;28.20;56.20;;;;;;5070225;28;19909;-76
2022/09/02 10:08:01;;;;;;;;;;;28.90;54.80;;;;;;5069169;28;19920;-76
2022/09/02 10:10:28;;;;;;;;;;;29.10;52.40;;;;;;5068735;28;19916;-77
2022/09/02 10:12:56;;;;;;;;;;;29.20;53.60;;;;;;5070656;28;19998;-76
2022/09/02 10:15:26;;;;;;;;;;;30.10;52.00;;;;;;5067032;28;20372;-76
2022/09/02 10:17:51;;;;;;;;;;;30.20;50.50;;;;;;5067258;28;19963;-76
2022/09/02 10:20:29;;;;;;;;;;;29.50;50.00;;;;;;5071062;28;20247;-77
2022/09/02 10:23:03;;;;;;;;;;;29.50;52.60;;;;;;5069517;28;19954;-77
2022/09/02 10:25:31;;;;;;;;;;;30.30;48.50;;;;;;5071015;28;19915;-76
2022/09/02 10:28:09;;;;;;;;;;;30.20;48.70;;;;;;5071312;28;19915;-77
2022/09/02 10:30:53;;;;;;;;;;;31.20;49.00;;;;;;5073393;28;19959;-77
2022/09/02 10:33:23;;;;;;;;;;;31.40;48.30;;;;;;5067275;28;19916;-76
2022/09/02 10:35:53;;;;;;;;;;;30.10;48.10;;;;;;5068947;28;20387;-76
2022/09/02 10:38:24;;;;;;;;;;;30.90;49.70;;;;;;5075011;28;19919;-76
2022/09/02 10:41:08;;;;;;;;;;;30.80;47.80;;;;;;5074885;28;19909;-76
2022/09/02 10:43:52;;;;;;;;;;;29.40;47.70;;;;;;5074662;28;19909;-76
2022/09/02 10:46:21;;;;;;;;;;;30.80;47.30;;;;;;5068652;28;20353;-77
2022/09/02 10:48:49;;;;;;;;;;;31.70;46.50;;;;;;5074974;28;19919;-76
2022/09/02 10:51:22;;;;;;;;;;;32.10;47.20;;;;;;5073239;28;19915;-76
2022/09/02 10:54:12;;;;;;;;;;;31.30;46.90;;;;;;5074291;28;19916;-76
2022/09/02 10:56:42;;;;;;;;;;;30.40;47.90;;;;;;5074504;28;20090;-76
2022/09/02 10:59:17;;;;;;;;;;;29.90;48.10;;;;;;5074673;28;19913;-76
2022/09/02 11:02:03;;;;;;;;;;;31.20;46.20;;;;;;5074417;28;19999;-76
2022/09/02 11:04:36;;;;;;;;;;;31.00;46.30;;;;;;5073435;28;19962;-76
2022/09/02 11:07:03;;;;;;;;;;;30.80;46.60;;;;;;5074231;28;19919;-76
2022/09/02 11:09:32;;;;;;;;;;;29.30;45.80;;;;;;5072900;28;20288;-76
2022/09/02 11:12:01;;;;;;;;;;;30.00;47.00;;;;;;5074109;28;19908;-77
2022/09/02 11:14:56;;;;;;;;;;;30.20;46.50;;;;;;5072842;28;19966;-77
2022/09/02 11:17:28;;;;;;;;;;;31.50;45.40;;;;;;5054188;28;20359;-77
2022/09/02 11:19:53;;;;;;;;;;;31.70;45.80;;;;;;5074276;28;19978;-77
2022/09/02 11:22:24;;;;;;;;;;;32.80;42.10;;;;;;5074372;28;20365;-77
2022/09/02 11:24:54;;;;;;;;;;;32.20;42.30;;;;;;5073974;28;19915;-76
2022/09/02 11:27:38;;;;;;;;;;;32.50;43.80;;;;;;5074171;28;20342;-77
2022/09/02 11:30:12;;;;;;;;;;;32.40;42.40;;;;;;5074096;28;20348;-76
2022/09/02 11:32:42;;;;;;;;;;;32.30;43.10;;;;;;5073793;28;19913;-77
2022/09/02 11:35:11;;;;;;;;;;;31.60;42.50;;;;;;5063436;28;19952;-76
2022/09/02 11:37:41;;;;;;;;;;;31.90;42.20;;;;;;5072386;28;19912;-76
2022/09/02 11:40:12;;;;;;;;;;;32.60;42.30;;;;;;5073708;28;19913;-76
2022/09/02 11:42:56;;;;;;;;;;;32.00;42.70;;;;;;5072651;28;19908;-76
2022/09/02 11:45:28;;;;;;;;;;;30.50;45.50;;;;;;5068604;28;20217;-77
2022/09/02 11:48:01;;;;;;;;;;;31.50;44.40;;;;;;5073907;28;20002;-76
2022/09/02 11:50:27;;;;;;;;;;;32.00;42.40;;;;;;5072978;28;19962;-75
2022/09/02 11:53:11;;;;;;;;;;;32.00;43.80;;;;;;5072872;28;19970;-76
2022/09/02 11:55:42;;;;;;;;;;;29.50;43.90;;;;;;5069033;28;19909;-75
2022/09/02 11:58:07;;;;;;;;;;;30.90;45.80;;;;;;5068824;28;19908;-76
2022/09/02 12:00:35;;;;;;;;;;;31.90;43.10;;;;;;5066999;28;20373;-76
2022/09/02 12:03:10;;;;;;;;;;;30.80;44.00;;;;;;5064294;28;19924;-76
2022/09/02 12:05:40;;;;;;;;;;;30.80;44.40;;;;;;5064159;28;19970;-76
2022/09/02 12:08:11;;;;;;;;;;;31.80;43.90;;;;;;5071134;28;19920;-76
2022/09/02 12:10:41;;;;;;;;;;;31.10;43.70;;;;;;5063677;28;19916;-74
2022/09/02 12:13:08;;;;;;;;;;;26.70;50.70;;;;;;5063416;28;19999;-75
2022/09/02 12:15:37;;;;;;;;;;;24.20;55.50;;;;;;5071885;28;19908;-75
2022/09/02 12:18:09;;;;;;;;;;;23.80;58.80;;;;;;5071837;28;19941;-75
2022/09/02 12:20:35;;;;;;;;;;;22.80;58.00;;;;;;5071903;28;19962;-75
2022/09/02 12:23:01;;;;;;;;;;;22.60;60.90;;;;;;5071951;28;19908;-75
2022/09/02 12:25:32;;;;;;;;;;;22.60;61.40;;;;;;5070487;28;19908;-75
2022/09/02 12:28:16;;;;;;;;;;;22.50;60.20;;;;;;5071376;28;19912;-75
2022/09/02 12:31:08;;;;;;;;;;;22.60;61.40;;;;;;5071901;28;19947;-75
2022/09/02 12:33:34;;;;;;;;;;;22.60;64.60;;;;;;5062850;28;19908;-75
2022/09/02 12:36:03;;;;;;;;;;;22.50;63.00;;;;;;5062353;28;19909;-75
2022/09/02 12:38:31;;;;;;;;;;;22.20;62.50;;;;;;5073115;28;19913;-75
2022/09/02 12:41:05;;;;;;;;;;;22.30;61.80;;;;;;5071665;28;20417;-75
2022/09/02 12:43:31;;;;;;;;;;;22.40;63.10;;;;;;5071459;28;20347;-75
2022/09/02 12:46:05;;;;;;;;;;;22.30;65.70;;;;;;5067744;28;19915;-75
2022/09/02 12:48:39;;;;;;;;;;;22.20;64.20;;;;;;5069104;28;20054;-75
2022/09/02 12:51:04;;;;;;;;;;;22.30;64.50;;;;;;5071117;28;20381;-75
2022/09/02 12:53:36;;;;;;;;;;;22.40;65.10;;;;;;5071063;28;19913;-75
2022/09/02 12:56:05;;;;;;;;;;;22.40;64.20;;;;;;5067258;28;20057;-75
2022/09/02 12:58:40;;;;;;;;;;;22.40;64.90;;;;;;5076488;28;19908;-75
2022/09/02 13:01:05;;;;;;;;;;;22.10;62.40;;;;;;5071396;28;19909;-76
2022/09/02 13:03:37;;;;;;;;;;;22.00;66.30;;;;;;5066955;28;19916;-78
2022/09/02 13:06:10;;;;;;;;;;;22.10;66.60;;;;;;5066745;28;19908;-76
2022/09/02 13:09:09;;;;;;;;;;;22.20;66.80;;;;;;5070863;28;20023;-77
2022/09/02 13:11:35;;;;;;;;;;;22.30;65.80;;;;;;5044913;28;19923;-75
2022/09/02 13:14:07;;;;;;;;;;;22.20;66.40;;;;;;5071007;28;19926;-76
2022/09/02 13:16:32;;;;;;;;;;;22.50;67.90;;;;;;5071503;28;20510;-75
2022/09/02 13:19:33;;;;;;;;;;;22.40;65.20;;;;;;5071395;28;19959;-77
2022/09/02 13:22:02;;;;;;;;;;;22.40;66.20;;;;;;5008953;28;19913;-78
2022/09/02 13:24:27;;;;;;;;;;;22.20;66.40;;;;;;5058844;28;19940;-76
2022/09/02 13:27:12;;;;;;;;;;;22.30;66.20;;;;;;5065499;28;19993;-78
2022/09/02 13:29:38;;;;;;;;;;;22.20;67.60;;;;;;5069535;28;20077;-75
2022/09/02 13:32:15;;;;;;;;;;;22.40;67.30;;;;;;5070583;28;20380;-76
2022/09/02 13:34:44;;;;;;;;;;;22.30;68.50;;;;;;5070802;28;19919;-76
2022/09/02 13:37:28;;;;;;;;;;;22.20;67.00;;;;;;5070208;28;19974;-76
2022/09/02 13:39:54;;;;;;;;;;;22.10;68.30;;;;;;5063878;28;19909;-76
2022/09/02 13:42:24;;;;;;;;;;;22.10;68.30;;;;;;5070990;28;20273;-76
2022/09/02 13:44:50;;;;;;;;;;;21.90;66.90;;;;;;5070931;28;19913;-76
2022/09/02 13:47:18;;;;;;;;;;;21.90;66.40;;;;;;5070720;28;19909;-78
2022/09/02 13:49:49;;;;;;;;;;;22.10;68.80;;;;;;5070130;28;20378;-76
2022/09/02 13:52:17;;;;;;;;;;;22.10;68.80;;;;;;5070781;28;19909;-77
2022/09/02 13:54:44;;;;;;;;;;;22.00;68.20;;;;;;5070980;28;19915;-78
2022/09/02 13:57:11;;;;;;;;;;;22.10;71.00;;;;;;5070065;28;19993;-78
2022/09/02 13:59:37;;;;;;;;;;;22.20;68.90;;;;;;5070366;28;20306;-76
2022/09/02 14:02:35;;;;;;;;;;;22.20;68.30;;;;;;5069272;28;19995;-76
2022/09/02 14:05:00;;;;;;;;;;;22.30;68.00;;;;;;5029363;28;20365;-77
2022/09/02 14:07:46;;;;;;;;;;;22.20;67.70;;;;;;5074583;28;19909;-78
2022/09/02 14:10:14;;;;;;;;;;;22.20;67.30;;;;;;5068825;28;20301;-76
2022/09/02 14:12:40;;;;;;;;;;;22.30;69.80;;;;;;5075033;28;19915;-79
2022/09/02 14:15:07;;;;;;;;;;;22.40;69.00;;;;;;5074022;28;20003;-78
2022/09/02 14:17:34;;;;;;;;;;;22.50;68.70;;;;;;5073443;28;20323;-76
2022/09/02 14:20:15;;;;;;;;;;;23.10;66.00;;;;;;5073567;28;19909;-80
2022/09/02 14:22:41;;;;;;;;;;;26.80;57.40;;;;;;5074522;28;19909;-76
2022/09/02 14:25:07;;;;;;;;;;;29.10;51.90;;;;;;5072967;28;20011;-77
2022/09/02 14:27:32;;;;;;;;;;;29.30;50.60;;;;;;5074376;28;20003;-77
2022/09/02 14:29:58;;;;;;;;;;;28.40;50.20;;;;;;5074702;28;20003;-78
2022/09/02 14:32:24;;;;;;;;;;;29.10;50.40;;;;;;5075200;28;19919;-77
2022/09/02 14:35:10;;;;;;;;;;;29.30;50.90;;;;;;5075088;28;19908;-79
2022/09/02 14:37:56;;;;;;;;;;;29.80;49.20;;;;;;5074217;28;19916;-77